createdAt,value
2019-04-07T00:00:07.415Z,20.00
2019-04-07T00:02:34.750Z,20.83
2019-04-07T00:05:11.035Z,20.33
2019-04-07T00:07:31.070Z,20.70
2019-04-07T00:09:58.453Z,19.70
2019-04-07T00:12:25.805Z,19.70
2019-04-07T00:14:53.049Z,20.20
2019-04-07T00:17:20.655Z,21.13
2019-04-07T00:19:48.087Z,19.67
2019-04-07T00:22:16.213Z,22.07
2019-04-07T00:24:44.031Z,20.40
2019-04-07T00:27:11.748Z,20.20
2019-04-07T00:29:39.514Z,20.50
2019-04-07T00:32:07.008Z,19.97
2019-04-07T00:34:34.721Z,19.97
2019-04-07T00:37:02.006Z,19.40
2019-04-07T00:39:29.274Z,21.00
2019-04-07T00:41:56.634Z,18.20
2019-04-07T00:44:24.656Z,19.80
2019-04-07T00:46:52.539Z,21.43
2019-04-07T00:49:20.541Z,20.33
2019-04-07T00:51:48.523Z,18.97
2019-04-07T00:54:16.063Z,22.17
2019-04-07T00:56:43.879Z,18.50
2019-04-07T00:59:11.273Z,18.60
2019-04-07T01:01:39.183Z,19.37
2019-04-07T01:04:07.037Z,20.43
2019-04-07T01:06:34.353Z,18.33
2019-04-07T01:09:01.791Z,19.60
2019-04-07T01:11:29.346Z,21.60
2019-04-07T01:13:56.973Z,22.30
2019-04-07T01:16:24.307Z,19.40
2019-04-07T01:18:52.002Z,16.50
2019-04-07T01:21:19.310Z,20.50
2019-04-07T01:23:46.877Z,20.57
2019-04-07T01:26:14.476Z,16.50
2019-04-07T01:28:41.800Z,17.33
2019-04-07T01:31:09.644Z,19.97
2019-04-07T01:33:37.013Z,16.83
2019-04-07T01:36:04.349Z,16.30
2019-04-07T01:38:32.090Z,17.97
2019-04-07T01:41:01.084Z,16.30
2019-04-07T01:43:42.046Z,16.97
2019-04-07T01:46:14.196Z,17.10
2019-04-07T01:48:59.518Z,18.63
2019-04-07T01:51:34.923Z,15.70
2019-04-07T01:54:18.944Z,16.50
2019-04-07T01:57:04.681Z,15.30
2019-04-07T01:59:48.441Z,14.50
2019-04-07T02:02:34.078Z,16.27
2019-04-07T02:05:06.671Z,16.57
2019-04-07T02:07:39.063Z,16.77
2019-04-07T02:10:20.846Z,17.20
2019-04-07T02:13:05.983Z,14.87
2019-04-07T02:15:38.233Z,15.10
2019-04-07T02:18:19.963Z,16.50
2019-04-07T02:21:05.449Z,15.77
2019-04-07T02:23:50.518Z,15.90
2019-04-07T02:26:19.413Z,16.10
2019-04-07T02:28:54.062Z,15.17
2019-04-07T02:31:35.857Z,16.00
2019-04-07T02:34:21.991Z,16.47
2019-04-07T02:37:07.058Z,16.37
2019-04-07T02:39:36.875Z,16.20
2019-04-07T02:42:05.846Z,15.17
2019-04-07T02:44:50.909Z,16.10
2019-04-07T02:47:23.186Z,17.87
2019-04-07T02:49:54.850Z,16.30
2019-04-07T02:52:40.087Z,16.70
2019-04-07T02:55:21.921Z,16.97
2019-04-07T02:57:54.152Z,16.30
2019-04-07T03:00:23.055Z,14.70
2019-04-07T03:02:54.679Z,17.67
2019-04-07T03:05:38.461Z,17.13
2019-04-07T03:08:19.491Z,16.13
2019-04-07T03:11:07.540Z,16.73
2019-04-07T03:13:51.957Z,17.47
2019-04-07T03:16:26.746Z,17.03
2019-04-07T03:18:58.671Z,16.50
2019-04-07T03:21:33.160Z,16.27
2019-04-07T03:24:06.092Z,14.30
2019-04-07T03:26:44.505Z,16.70
2019-04-07T03:29:25.665Z,14.70
2019-04-07T03:32:12.067Z,15.00
2019-04-07T03:34:41.174Z,14.57
2019-04-07T03:37:36.151Z,15.07
2019-04-07T03:40:06.580Z,15.77
2019-04-07T03:42:51.989Z,19.03
2019-04-07T03:45:22.050Z,16.30
2019-04-07T03:47:54.564Z,14.00
2019-04-07T03:50:26.646Z,17.53
2019-04-07T03:53:10.421Z,15.87
2019-04-07T03:55:39.334Z,14.50
2019-04-07T03:58:14.147Z,16.63
2019-04-07T04:00:50.672Z,16.13
2019-04-07T04:03:19.564Z,14.87
2019-04-07T04:05:55.159Z,16.43
2019-04-07T04:08:33.118Z,14.40
2019-04-07T04:11:04.722Z,13.67
2019-04-07T04:13:34.312Z,17.40
2019-04-07T04:16:03.301Z,14.00
2019-04-07T04:18:30.946Z,12.60
2019-04-07T04:20:59.462Z,12.93
2019-04-07T04:23:26.935Z,12.70
2019-04-07T04:25:54.216Z,14.73
2019-04-07T04:28:21.880Z,14.23
2019-04-07T04:30:49.326Z,15.33
2019-04-07T04:33:16.575Z,13.07
2019-04-07T04:35:44.136Z,11.50
2019-04-07T04:38:12.175Z,12.60
2019-04-07T04:40:39.614Z,13.37
2019-04-07T04:43:07.174Z,12.10
2019-04-07T04:45:34.496Z,12.97
2019-04-07T04:48:02.771Z,13.33
2019-04-07T04:50:30.091Z,12.77
2019-04-07T04:52:57.342Z,13.37
2019-04-07T04:55:25.411Z,11.60
2019-04-07T04:57:52.741Z,11.60
2019-04-07T05:00:20.296Z,12.03
2019-04-07T05:02:47.644Z,12.17
2019-04-07T05:05:14.983Z,11.60
2019-04-07T05:07:53.833Z,11.00
2019-04-07T05:10:12.252Z,11.13
2019-04-07T05:12:40.211Z,11.30
2019-04-07T05:15:07.526Z,12.40
2019-04-07T05:17:35.233Z,12.10
2019-04-07T05:20:02.927Z,10.70
2019-04-07T05:22:30.607Z,10.83
2019-04-07T05:24:57.884Z,12.60
2019-04-07T05:27:25.147Z,12.57
2019-04-07T05:29:52.402Z,12.23
2019-04-07T05:32:20.062Z,11.20
2019-04-07T05:34:47.671Z,11.67
2019-04-07T05:37:14.950Z,12.57
2019-04-07T05:39:42.554Z,12.67
2019-04-07T05:42:10.095Z,12.00
2019-04-07T05:44:37.341Z,13.20
2019-04-07T05:47:04.628Z,11.57
2019-04-07T05:49:32.516Z,11.80
2019-04-07T05:52:04.136Z,12.00
2019-04-07T05:54:28.797Z,10.80
2019-04-07T05:56:59.640Z,11.43
2019-04-07T05:59:25.448Z,11.70
2019-04-07T06:01:58.450Z,12.53
2019-04-07T06:04:22.020Z,11.60
2019-04-07T06:06:52.633Z,11.87
2019-04-07T06:09:20.282Z,11.70
2019-04-07T06:11:47.621Z,12.77
2019-04-07T06:14:16.593Z,12.20
2019-04-07T06:16:43.937Z,12.77
2019-04-07T06:19:11.703Z,12.20
2019-04-07T06:21:39.865Z,12.57
2019-04-07T06:24:07.806Z,11.90
2019-04-07T06:26:35.195Z,11.57
2019-04-07T06:29:02.653Z,12.10
2019-04-07T06:31:32.162Z,11.50
2019-04-07T06:33:59.335Z,12.63
2019-04-07T06:36:27.051Z,11.67
2019-04-07T06:38:54.771Z,12.23
2019-04-07T06:41:25.005Z,13.10
2019-04-07T06:43:51.758Z,13.17
2019-04-07T06:46:35.721Z,12.60
2019-04-07T06:49:11.317Z,12.73
2019-04-07T06:51:38.027Z,10.67
2019-04-07T06:54:13.390Z,10.90
2019-04-07T06:56:45.565Z,11.13
2019-04-07T06:59:23.551Z,10.30
2019-04-07T07:01:53.639Z,9.60
2019-04-07T07:04:28.870Z,9.20
2019-04-07T07:07:00.652Z,9.50
2019-04-07T07:09:33.294Z,19.60
2019-04-07T07:12:02.306Z,13.00
2019-04-07T07:14:47.827Z,9.80
2019-04-07T07:17:33.157Z,8.40
2019-04-07T07:20:05.935Z,7.50
2019-04-07T07:22:35.736Z,7.73
2019-04-07T07:25:04.109Z,7.93
2019-04-07T07:27:31.748Z,9.90
2019-04-07T07:29:59.284Z,7.27
2019-04-07T07:32:26.868Z,7.40
2019-04-07T07:34:54.240Z,6.57
2019-04-07T07:37:22.953Z,6.50
2019-04-07T07:39:50.812Z,9.50
2019-04-07T07:42:21.507Z,8.70
2019-04-07T07:44:47.106Z,112.53
2019-04-07T07:47:14.563Z,19.50
2019-04-07T07:49:42.466Z,15.97
2019-04-07T07:52:10.397Z,25.07
2019-04-07T07:54:37.670Z,9.83
2019-04-07T07:57:05.002Z,9.27
2019-04-07T07:59:37.628Z,8.03
2019-04-07T08:02:01.367Z,9.43
2019-04-07T08:04:29.144Z,7.67
2019-04-07T08:06:56.926Z,8.80
2019-04-07T08:09:26.000Z,6.93
2019-04-07T08:11:54.291Z,6.70
2019-04-07T08:14:21.738Z,11.90
2019-04-07T08:16:49.088Z,7.93
2019-04-07T08:19:16.783Z,10.23
2019-04-07T08:21:45.444Z,8.63
2019-04-07T08:24:16.393Z,7.60
2019-04-07T08:26:41.898Z,7.87
2019-04-07T08:29:11.972Z,7.07
2019-04-07T08:31:38.473Z,5.07
2019-04-07T08:34:05.770Z,8.33
2019-04-07T08:36:33.837Z,6.23
2019-04-07T08:39:01.154Z,7.30
2019-04-07T08:41:28.857Z,8.40
2019-04-07T08:43:57.782Z,6.27
2019-04-07T08:46:26.882Z,6.57
2019-04-07T08:48:55.765Z,6.83
2019-04-07T08:51:23.278Z,7.23
2019-04-07T08:53:50.520Z,6.20
2019-04-07T08:56:17.905Z,6.87
2019-04-07T08:58:45.756Z,6.03
2019-04-07T09:01:13.043Z,7.40
2019-04-07T09:03:43.885Z,7.03
2019-04-07T09:06:09.720Z,6.00
2019-04-07T09:08:38.226Z,6.70
2019-04-07T09:11:11.138Z,8.40
2019-04-07T09:13:38.528Z,7.60
2019-04-07T09:16:08.219Z,9.00
2019-04-07T09:19:00.609Z,7.60
2019-04-07T09:21:42.520Z,20.63
2019-04-07T09:24:19.854Z,5.40
2019-04-07T09:26:55.704Z,7.77
2019-04-07T09:29:29.232Z,6.43
2019-04-07T09:32:13.541Z,17.63
2019-04-07T09:34:58.549Z,4.43
2019-04-07T09:37:27.457Z,7.53
2019-04-07T09:40:02.197Z,6.30
2019-04-07T09:42:41.857Z,4.50
2019-04-07T09:45:27.647Z,5.40
2019-04-07T09:48:08.816Z,4.50
2019-04-07T09:50:49.881Z,5.17
2019-04-07T09:53:33.850Z,5.07
2019-04-07T09:56:08.598Z,5.33
2019-04-07T09:58:51.492Z,5.10
2019-04-07T10:01:21.090Z,5.03
2019-04-07T10:03:52.737Z,5.97
2019-04-07T10:06:21.766Z,5.50
2019-04-07T10:09:06.769Z,5.40
2019-04-07T10:11:48.760Z,6.30
2019-04-07T10:14:18.520Z,7.03
2019-04-07T10:16:56.451Z,7.00
2019-04-07T10:19:25.589Z,5.30
2019-04-07T10:21:55.137Z,4.73
2019-04-07T10:24:42.171Z,4.60
2019-04-07T10:27:17.921Z,4.60
2019-04-07T10:29:51.408Z,4.80
2019-04-07T10:32:23.032Z,5.70
2019-04-07T10:35:08.014Z,5.90
2019-04-07T10:37:42.966Z,5.50
2019-04-07T10:40:19.715Z,5.60
2019-04-07T10:43:05.184Z,5.63
2019-04-07T10:45:34.172Z,5.23
2019-04-07T10:48:06.907Z,4.80
2019-04-07T10:50:45.235Z,4.53
2019-04-07T10:53:32.087Z,4.47
2019-04-07T10:56:01.141Z,5.60
2019-04-07T10:58:46.206Z,5.13
2019-04-07T11:01:30.907Z,5.20
2019-04-07T11:04:09.486Z,4.47
2019-04-07T11:06:45.018Z,4.60
2019-04-07T11:09:26.642Z,3.07
2019-04-07T11:12:07.415Z,2.80
2019-04-07T11:14:42.940Z,2.47
2019-04-07T11:17:14.676Z,2.40
2019-04-07T11:19:59.737Z,2.10
2019-04-07T11:22:45.110Z,2.17
2019-04-07T11:25:17.277Z,2.23
2019-04-07T11:27:48.869Z,2.17
2019-04-07T11:30:34.358Z,2.23
2019-04-07T11:33:20.167Z,1.93
2019-04-07T11:36:08.253Z,1.50
2019-04-07T11:38:38.526Z,1.80
2019-04-07T11:41:16.993Z,1.73
2019-04-07T11:43:52.042Z,2.20
2019-04-07T11:46:24.344Z,2.00
2019-04-07T11:48:53.378Z,1.60
2019-04-07T11:51:40.617Z,2.07
2019-04-07T11:54:09.814Z,1.50
2019-04-07T11:56:54.476Z,1.87
2019-04-07T11:59:27.385Z,2.10
2019-04-07T12:02:18.631Z,2.10
2019-04-07T12:04:45.154Z,2.83
2019-04-07T12:07:30.490Z,2.23
2019-04-07T12:10:14.428Z,1.87
2019-04-07T12:12:43.818Z,2.00
2019-04-07T12:15:13.097Z,2.07
2019-04-07T12:17:44.958Z,2.30
2019-04-07T12:20:20.745Z,2.23
2019-04-07T12:23:05.948Z,1.77
2019-04-07T12:25:43.961Z,2.40
2019-04-07T12:28:16.105Z,2.07
2019-04-07T12:30:50.228Z,2.00
2019-04-07T12:33:20.037Z,1.93
2019-04-07T12:35:56.353Z,1.83
2019-04-07T12:38:26.356Z,2.07
2019-04-07T12:41:17.191Z,1.80
2019-04-07T12:43:56.221Z,2.53
2019-04-07T12:46:27.926Z,2.73
2019-04-07T12:48:59.739Z,1.97
2019-04-07T12:51:35.058Z,2.20
2019-04-07T12:54:08.155Z,2.00
2019-04-07T12:56:38.024Z,2.00
2019-04-07T12:59:16.871Z,2.57
2019-04-07T13:01:52.089Z,2.50
2019-04-07T13:04:21.020Z,2.20
2019-04-07T13:06:58.974Z,2.03
2019-04-07T13:09:31.926Z,2.20
2019-04-07T13:12:15.114Z,2.40
2019-04-07T13:14:55.777Z,2.10
2019-04-07T13:17:37.987Z,2.10
2019-04-07T13:20:26.713Z,1.80
2019-04-07T13:23:07.957Z,2.80
2019-04-07T13:25:42.889Z,2.93
2019-04-07T13:28:15.295Z,2.10
2019-04-07T13:30:44.465Z,2.50
2019-04-07T13:33:14.017Z,2.30
2019-04-07T13:35:42.959Z,2.37
2019-04-07T13:38:12.171Z,2.80
2019-04-07T13:40:47.353Z,2.10
2019-04-07T13:43:31.110Z,2.43
2019-04-07T13:46:17.486Z,2.30
2019-04-07T13:48:59.187Z,2.83
2019-04-07T13:51:25.030Z,2.13
2019-04-07T13:53:57.730Z,2.13
2019-04-07T13:56:40.975Z,2.33
2019-04-07T13:59:11.286Z,2.40
2019-04-07T14:01:59.139Z,2.00
2019-04-07T14:04:46.777Z,2.40
2019-04-07T14:07:25.153Z,1.90
2019-04-07T14:10:09.107Z,2.00
2019-04-07T14:12:47.872Z,2.00
2019-04-07T14:15:29.933Z,2.57
2019-04-07T14:18:11.298Z,2.00
2019-04-07T14:20:58.101Z,2.50
2019-04-07T14:23:27.572Z,2.10
2019-04-07T14:25:56.950Z,2.40
2019-04-07T14:28:41.162Z,2.50
2019-04-07T14:31:10.835Z,2.47
2019-04-07T14:33:45.694Z,2.33
2019-04-07T14:36:17.549Z,2.00
2019-04-07T14:38:46.671Z,3.03
2019-04-07T14:41:31.774Z,2.73
2019-04-07T14:44:07.009Z,1.97
2019-04-07T14:46:48.928Z,2.23
2019-04-07T14:49:34.243Z,2.53
2019-04-07T14:52:03.709Z,2.30
2019-04-07T14:54:48.500Z,2.60
2019-04-07T14:57:24.289Z,3.77
2019-04-07T15:00:08.892Z,2.27
2019-04-07T15:02:36.505Z,2.07
2019-04-07T15:05:12.562Z,2.60
2019-04-07T15:07:45.068Z,2.10
2019-04-07T15:10:16.861Z,2.50
2019-04-07T15:12:47.685Z,3.40
2019-04-07T15:15:16.022Z,3.67
2019-04-07T15:17:43.602Z,3.50
2019-04-07T15:20:13.615Z,2.50
2019-04-07T15:22:41.013Z,3.00
2019-04-07T15:25:08.995Z,2.23
2019-04-07T15:27:37.995Z,2.20
2019-04-07T15:30:13.318Z,2.40
2019-04-07T15:32:38.372Z,2.20
2019-04-07T15:35:06.347Z,2.27
2019-04-07T15:37:34.692Z,2.90
2019-04-07T15:40:04.676Z,3.10
2019-04-07T15:42:40.346Z,2.40
2019-04-07T15:44:59.954Z,2.27
2019-04-07T15:47:27.662Z,2.20
2019-04-07T15:49:57.740Z,2.90
2019-04-07T15:52:24.195Z,2.30
2019-04-07T15:54:54.339Z,2.40
2019-04-07T15:57:22.050Z,3.10
2019-04-07T15:59:49.642Z,3.73
2019-04-07T16:02:17.167Z,4.20
2019-04-07T16:04:44.520Z,4.17
2019-04-07T16:07:12.176Z,4.73
2019-04-07T16:09:50.395Z,4.63
2019-04-07T16:12:08.571Z,5.17
2019-04-07T16:14:36.363Z,5.00
2019-04-07T16:17:05.701Z,4.70
2019-04-07T16:19:40.045Z,4.97
2019-04-07T16:22:01.904Z,5.40
2019-04-07T16:24:29.271Z,5.27
2019-04-07T16:26:56.518Z,5.27
2019-04-07T16:29:23.779Z,5.40
2019-04-07T16:31:51.828Z,5.30
2019-04-07T16:34:19.332Z,5.70
2019-04-07T16:36:47.603Z,5.60
2019-04-07T16:39:15.729Z,6.07
2019-04-07T16:41:45.339Z,5.17
2019-04-07T16:44:12.508Z,5.47
2019-04-07T16:46:39.746Z,5.43
2019-04-07T16:49:07.796Z,5.97
2019-04-07T16:51:36.333Z,5.97
2019-04-07T16:54:08.579Z,6.27
2019-04-07T16:56:36.869Z,6.83
2019-04-07T16:59:06.366Z,5.63
2019-04-07T17:01:33.612Z,5.83
2019-04-07T17:04:01.134Z,5.27
2019-04-07T17:06:32.770Z,6.30
2019-04-07T17:08:59.147Z,5.10
2019-04-07T17:11:27.066Z,6.20
2019-04-07T17:13:54.359Z,6.60
2019-04-07T17:16:24.676Z,6.20
2019-04-07T17:18:55.167Z,6.90
2019-04-07T17:21:20.941Z,6.97
2019-04-07T17:23:53.197Z,7.03
2019-04-07T17:26:18.090Z,7.50
2019-04-07T17:28:48.111Z,6.60
2019-04-07T17:31:15.432Z,7.67
2019-04-07T17:33:42.954Z,7.77
2019-04-07T17:36:10.351Z,6.70
2019-04-07T17:38:42.082Z,6.97
2019-04-07T17:41:10.352Z,6.93
2019-04-07T17:43:59.286Z,7.40
2019-04-07T17:46:43.216Z,6.40
2019-04-07T17:49:30.812Z,6.47
2019-04-07T17:52:14.307Z,6.60
2019-04-07T17:54:58.927Z,6.40
2019-04-07T17:57:34.814Z,6.10
2019-04-07T18:00:11.634Z,7.37
2019-04-07T18:02:54.924Z,6.90
2019-04-07T18:05:23.494Z,6.63
2019-04-07T18:07:52.338Z,7.13
2019-04-07T18:10:26.398Z,6.40
2019-04-07T18:13:11.936Z,7.10
2019-04-07T18:15:44.486Z,5.90
2019-04-07T18:18:23.580Z,7.37
2019-04-07T18:21:03.068Z,7.20
2019-04-07T18:23:48.396Z,7.70
2019-04-07T18:26:23.663Z,6.97
2019-04-07T18:29:10.622Z,7.13
2019-04-07T18:31:42.224Z,6.97
2019-04-07T18:34:11.495Z,6.60
2019-04-07T18:36:40.642Z,7.23
2019-04-07T18:39:18.307Z,6.67
2019-04-07T18:42:08.000Z,6.80
2019-04-07T18:44:38.328Z,7.00
2019-04-07T18:47:12.133Z,6.73
2019-04-07T18:49:53.855Z,6.43
2019-04-07T18:52:24.469Z,7.73
2019-04-07T18:55:04.938Z,6.97
2019-04-07T18:57:43.900Z,7.10
2019-04-07T19:00:31.495Z,7.13
2019-04-07T19:03:00.644Z,6.83
2019-04-07T19:05:36.263Z,6.90
2019-04-07T19:08:05.666Z,6.90
2019-04-07T19:10:51.485Z,8.17
2019-04-07T19:13:26.773Z,6.70
2019-04-07T19:15:58.886Z,7.90
2019-04-07T19:18:34.700Z,7.50
2019-04-07T19:21:03.826Z,7.43
2019-04-07T19:23:39.893Z,7.13
2019-04-07T19:26:17.035Z,7.77
2019-04-07T19:28:57.062Z,7.50
2019-04-07T19:31:29.944Z,6.90
2019-04-07T19:33:59.990Z,7.10
2019-04-07T19:36:58.521Z,7.87
2019-04-07T19:39:30.691Z,8.00
2019-04-07T19:42:04.645Z,8.17
2019-04-07T19:44:51.056Z,8.40
2019-04-07T19:47:32.886Z,8.03
2019-04-07T19:50:11.148Z,8.70
2019-04-07T19:52:41.086Z,7.80
2019-04-07T19:55:12.971Z,7.93
2019-04-07T19:57:47.862Z,7.70
2019-04-07T20:00:26.168Z,7.10
2019-04-07T20:02:59.479Z,7.57
2019-04-07T20:05:43.582Z,8.17
2019-04-07T20:08:32.434Z,7.97
2019-04-07T20:11:11.808Z,6.73
2019-04-07T20:13:41.092Z,6.30
2019-04-07T20:16:19.820Z,7.87
2019-04-07T20:19:06.698Z,7.50
2019-04-07T20:21:42.506Z,7.00
2019-04-07T20:24:20.510Z,7.60
2019-04-07T20:26:53.206Z,7.07
2019-04-07T20:29:33.869Z,7.07
2019-04-07T20:32:17.082Z,6.00
2019-04-07T20:34:45.958Z,5.80
2019-04-07T20:37:15.087Z,5.83
2019-04-07T20:40:03.455Z,6.03
2019-04-07T20:42:32.938Z,6.60
2019-04-07T20:45:15.308Z,6.20
2019-04-07T20:48:01.268Z,5.57
2019-04-07T20:50:35.898Z,6.07
2019-04-07T20:53:14.633Z,5.43
2019-04-07T20:55:39.965Z,5.60
2019-04-07T20:58:18.730Z,5.67
2019-04-07T21:01:00.691Z,5.30
2019-04-07T21:03:27.649Z,5.40
2019-04-07T21:06:08.678Z,5.33
2019-04-07T21:08:40.578Z,5.70
2019-04-07T21:11:09.464Z,4.87
2019-04-07T21:13:39.474Z,5.57
2019-04-07T21:16:10.962Z,4.87
2019-04-07T21:18:40.338Z,4.83
2019-04-07T21:21:22.117Z,5.00
2019-04-07T21:23:51.174Z,5.20
2019-04-07T21:26:27.494Z,5.00
2019-04-07T21:29:09.149Z,4.73
2019-04-07T21:31:36.526Z,4.67
2019-04-07T21:34:17.677Z,4.20
2019-04-07T21:37:04.738Z,4.20
2019-04-07T21:39:50.218Z,4.97
2019-04-07T21:42:36.023Z,4.63
2019-04-07T21:45:08.887Z,4.60
2019-04-07T21:47:38.544Z,4.03
2019-04-07T21:50:11.911Z,3.77
2019-04-07T21:52:58.058Z,4.33
2019-04-07T21:55:35.983Z,4.00
2019-04-07T21:58:10.450Z,3.67
2019-04-07T22:00:55.453Z,3.37
2019-04-07T22:03:45.518Z,3.97
2019-04-07T22:06:29.858Z,3.40
2019-04-07T22:09:17.074Z,3.90
2019-04-07T22:11:45.815Z,3.40
2019-04-07T22:14:13.150Z,3.27
2019-04-07T22:16:40.722Z,3.47
2019-04-07T22:19:11.059Z,3.90
2019-04-07T22:21:37.012Z,3.90
2019-04-07T22:24:04.904Z,3.77
2019-04-07T22:26:33.502Z,3.33
2019-04-07T22:29:03.154Z,3.90
2019-04-07T22:31:31.507Z,3.53
2019-04-07T22:34:01.014Z,3.83
2019-04-07T22:36:27.731Z,3.60
2019-04-07T22:38:58.443Z,4.30
2019-04-07T22:41:25.009Z,3.70
2019-04-07T22:43:52.918Z,3.67
2019-04-07T22:46:25.524Z,4.17
2019-04-07T22:48:50.096Z,4.37
2019-04-07T22:51:17.480Z,3.90
2019-04-07T22:53:45.474Z,3.80
2019-04-07T22:56:13.931Z,3.90
2019-04-07T22:58:42.288Z,3.47
2019-04-07T23:01:09.658Z,4.70
2019-04-07T23:03:36.981Z,4.40
2019-04-07T23:06:05.141Z,4.80
2019-04-07T23:08:32.783Z,4.00
2019-04-07T23:11:00.124Z,3.80
2019-04-07T23:13:27.991Z,3.70
2019-04-07T23:16:07.298Z,3.63
2019-04-07T23:18:24.360Z,3.80
2019-04-07T23:20:51.916Z,3.40
2019-04-07T23:23:19.173Z,4.03
2019-04-07T23:25:46.438Z,4.03
2019-04-07T23:28:14.526Z,4.20
2019-04-07T23:30:41.824Z,3.70
2019-04-07T23:33:09.066Z,4.30
2019-04-07T23:35:37.078Z,4.00
2019-04-07T23:38:04.435Z,4.13
2019-04-07T23:40:32.232Z,4.03
2019-04-07T23:43:00.568Z,4.00
2019-04-07T23:45:27.833Z,4.07
2019-04-07T23:47:55.103Z,4.20
2019-04-07T23:50:23.093Z,4.00
2019-04-07T23:52:50.405Z,5.20
2019-04-07T23:55:17.666Z,4.07
2019-04-07T23:57:44.909Z,4.03
